Flight Track Log - Related Links

Times and Time Zones

All times are in EDT time to prevent confusion due to time zone crossing. See the EJA727 flight status page for this flight to view local times or setup timezone preferences in your user account.

Time Position Orientation Groundspeed Altitude Reporting Facility
EDT Latitude Longitude Course Direction KTS MPH feet Rate Location/Type
Wed 07:28:11 PM 34.2372 -119.2039 286° West 258 297 4,000  Level Los Angeles Center
Wed 07:28:43 PM 34.2458 -119.2400 286° West 255 293 4,900 3,364 Climbing Los Angeles Center
Wed 07:29:17 PM 34.2422 -119.3039 266° West 273 314 7,700 2,903 Climbing Los Angeles Center
Wed 07:29:45 PM 34.2350 -119.3283 250° West 267 307 7,900 462 Climbing Los Angeles Center
Wed 07:30:48 PM 34.2178 -119.4422 260° West 286 329 8,400 1,403 Climbing Los Angeles Center
Wed 07:31:49 PM 34.2047 -119.5356 260° West 284 327 10,800 2,780 Climbing Los Angeles Center
Wed 07:32:51 PM 34.1425 -119.5931 217° Southwest 332 382 14,100 3,581 Climbing Los Angeles Center
Wed 07:33:53 PM 34.0761 -119.5133 135° Southeast 363 418 18,200 3,484 Climbing Los Angeles Center
Wed 07:34:55 PM 34.1069 -119.3931 73° East 391 450 21,300 2,952 Climbing Los Angeles Center
Wed 07:35:57 PM 34.1508 -119.2700 67° East 400 460 24,300 3,000 Climbing Los Angeles Center
Wed 07:36:59 PM 34.1964 -119.1428 67° East 409 471 27,500 3,097 Climbing Los Angeles Center
Wed 07:38:01 PM 34.2475 -118.9856 68° East 418 481 30,700 2,177 Climbing Los Angeles Center
Wed 07:39:03 PM 34.2900 -118.8472 70° East 435 501 32,000 1,113 Climbing Los Angeles Center
Wed 07:40:05 PM 34.3356 -118.6983 70° East 462 532 33,000 968 Climbing Los Angeles Center
Wed 07:41:07 PM 34.3839 -118.5422 69° East 486 559 34,000 968 Climbing Los Angeles Center
Wed 07:42:09 PM 34.4308 -118.3853 70° East 493 567 35,000 968 Climbing Los Angeles Center
Wed 07:43:11 PM 34.4786 -118.2283 70° East 494 568 36,000 960 Climbing Los Angeles Center
Wed 07:44:14 PM 34.5275 -118.0678 70° East 498 573 37,000 484 Climbing Los Angeles Center
Wed 07:45:15 PM 34.5833 -117.8792 70° East 499 574 37,000  Level Los Angeles Center
Wed 07:46:17 PM 34.6303 -117.7211 70° East 502 578 37,000 242 Level Los Angeles Center
Wed 07:47:19 PM 34.6753 -117.5647 71° East 499 574 37,500 581 Climbing Los Angeles Center
Wed 07:48:21 PM 34.7219 -117.4089 70° East 498 573 38,200 581 Climbing Los Angeles Center
Wed 07:49:23 PM 34.7678 -117.2503 71° East 502 578 38,700 387 Climbing Los Angeles Center
Wed 07:50:25 PM 34.8236 -117.0592 70° East 506 582 39,000 145 Climbing Los Angeles Center
Wed 07:51:27 PM 34.8869 -116.9086 63° Northeast 508 585 39,000  Level Los Angeles Center
Wed 07:52:41 PM 34.9747 -116.7819 50° Northeast 495 570 39,000  Level Los Angeles Center
Wed 07:53:43 PM 35.0811 -116.6303 49° Northeast 493 567 39,000  Level Los Angeles Center
Wed 07:54:45 PM 35.1861 -116.4778 50° Northeast 492 566 39,000  Level Los Angeles Center
Wed 07:55:48 PM 35.2750 -116.3489 50° Northeast 496 571 39,000  Level Los Angeles Center
Wed 07:56:50 PM 35.3642 -116.2203 50° Northeast 497 572 39,000  Level Los Angeles Center
Wed 07:57:52 PM 35.4503 -116.0903 51° Northeast 494 568 39,000  Level Los Angeles Center
Wed 07:58:54 PM 35.5419 -115.9619 49° Northeast 500 575 39,000  Level Los Angeles Center
Wed 07:59:56 PM 35.6372 -115.8203 50° Northeast 499 574 39,000  Level Los Angeles Center
Wed 08:00:58 PM 35.7250 -115.6889 51° Northeast 499 574 39,000  Level Los Angeles Center
Wed 08:02:00 PM 35.8306 -115.5331 50° Northeast 497 572 39,000  Level Los Angeles Center
Wed 08:03:02 PM 35.9181 -115.4025 50° Northeast 498 573 39,000  Level Los Angeles Center
Wed 08:04:04 PM 36.0050 -115.2731 50° Northeast 496 571 39,000  Level Los Angeles Center
Wed 08:05:06 PM 36.0903 -115.1433 51° Northeast 492 566 39,000  Level Los Angeles Center
Wed 08:06:08 PM 36.1681 -115.0478 45° Northeast 495 570 39,000  Level Los Angeles Center
Wed 08:07:11 PM 36.3019 -114.8769 46° Northeast 497 572 39,000  Level Los Angeles Center
Wed 08:08:13 PM 36.3975 -114.7553 46° Northeast 496 571 39,000  Level Los Angeles Center
Wed 08:09:15 PM 36.4914 -114.6331 46° Northeast 493 567 39,000  Level Los Angeles Center
Wed 08:10:17 PM 36.5867 -114.5089 46° Northeast 495 570 39,000  Level Los Angeles Center
Wed 08:11:19 PM 36.6817 -114.3842 46° Northeast 497 572 39,000  Level Los Angeles Center
Wed 08:12:21 PM 36.8022 -114.2486 42° Northeast 488 562 39,000  Level Los Angeles Center
Wed 08:13:23 PM 36.9172 -114.1592 32° Northeast 488 562 39,000  Level Los Angeles Center
Wed 08:14:25 PM 37.0322 -114.0714 31° Northeast 486 559 39,000  Level Los Angeles Center
Wed 08:15:17 PM 37.1339 -113.9894 33° Northeast 487 560 39,000  Level Salt Lake Center
Wed 08:16:18 PM 37.2483 -113.9008 32° Northeast 484 557 39,000  Level Salt Lake Center
Wed 08:17:20 PM 37.3619 -113.8111 32° Northeast 482 555 39,000  Level Salt Lake Center
Wed 08:18:22 PM 37.4781 -113.7217 31° Northeast 486 559 39,000  Level Salt Lake Center
Wed 08:19:23 PM 37.5933 -113.6311 32° Northeast 485 558 39,000  Level Salt Lake Center
Wed 08:20:25 PM 37.7072 -113.5400 32° Northeast 482 555 39,000 -387 Level Salt Lake Center
Wed 08:21:27 PM 37.8222 -113.4497 32° Northeast 482 555 38,200 -1,016 Descending Salt Lake Center
Wed 08:22:29 PM 37.9342 -113.3589 33° Northeast 477 549 36,900 -1,512 Descending Salt Lake Center
Wed 08:23:30 PM 38.0689 -113.2536 32° Northeast 471 542 35,100 -1,610 Descending Salt Lake Center
Wed 08:24:32 PM 38.1747 -113.1681 32° Northeast 454 522 33,600 -1,452 Descending Salt Lake Center
Wed 08:25:34 PM 38.2769 -113.0847 33° Northeast 439 505 32,100 -774 Descending Salt Lake Center
Wed 08:26:36 PM 38.3833 -113.0019 31° Northeast 445 512 32,000 -49 Descending Salt Lake Center
Wed 08:27:37 PM 38.5022 -112.9397 22° Northeast 456 525 32,000  Level Salt Lake Center
Wed 08:28:39 PM 38.6203 -112.8744 23° Northeast 461 531 32,000 -435 Level Salt Lake Center
Wed 08:29:41 PM 38.7378 -112.8097 23° Northeast 461 531 31,100 -1,415 Descending Salt Lake Center
Wed 08:30:42 PM 38.8500 -112.7467 24° Northeast 444 511 29,100 -2,146 Descending Salt Lake Center
Wed 08:31:44 PM 38.9847 -112.6733 23° Northeast 439 505 26,700 -2,129 Descending Salt Lake Center
Wed 08:32:46 PM 39.0931 -112.6133 23° Northeast 428 493 24,700 -1,935 Descending Salt Lake Center
Wed 08:33:48 PM 39.2006 -112.5547 23° Northeast 422 486 22,700 -1,902 Descending Salt Lake Center
Wed 08:34:49 PM 39.2953 -112.5011 24° Northeast 413 475 20,800 -2,098 Descending Salt Lake Center
Wed 08:35:51 PM 39.4167 -112.4339 23° Northeast 400 460 18,400 -2,032 Descending Salt Lake Center
Wed 08:36:53 PM 39.5147 -112.3792 23° Northeast 388 447 16,600 -1,610 Descending Salt Lake Center
Wed 08:37:54 PM 39.6094 -112.3264 23° Northeast 376 433 15,100 -1,463 Descending Salt Lake Center
Wed 08:38:56 PM 39.6769 -112.2381 45° Northeast 365 420 13,600 -1,452 Descending Salt Lake Center
Wed 08:39:58 PM 39.7522 -112.1644 37° Northeast 352 405 12,100 -881 Descending Salt Lake Center
Wed 08:40:45 PM 39.8269 -112.1317 19° North 347 399 12,000 -97 Descending Salt Lake Center
Wed 08:41:00 PM 39.8397 -112.1144 46° Northeast 348 400 12,000 -200 Level Salt Lake Center
Wed 08:41:15 PM 39.8769 -112.1122 North 348 400 11,900 -984 Descending Salt Lake Center
Wed 08:42:01 PM 39.9447 -112.0628 29° Northeast 334 384 11,000 -1,279 Descending Salt Lake Center
Wed 08:42:16 PM 39.9600 -112.0539 24° Northeast 341 392 10,600 -968 Descending Salt Lake Center
Wed 08:43:03 PM 40.0092 -111.9744 51° Northeast 336 387 10,000 -716 Descending Salt Lake Center
Wed 08:44:05 PM 40.0586 -111.8764 57° Northeast 327 376 9,300 -488 Descending Salt Lake Center
Wed 08:45:06 PM 40.1072 -111.8122 45° Northeast 263 303 9,000 -390 Descending Salt Lake Center
Wed 08:46:08 PM 40.1439 -111.7467 54° Northeast 254 292 8,500 -1,800 Descending Salt Lake Center
Wed 08:47:26 PM 40.1953 -111.7108 28° Northeast 166 191 4,800 -2,846 Descending Salt Lake Center

Login

Don't have an account? Register now (free) for customized features, flight alerts, and more!